Time;durP1;ratioP1;P1;durP2;ratioP2;P2;SDS_P1;SDS_P2;PMS_P1;PMS_P2;Temp;Humidity;BMP_temperature;BMP_pressure;BME280_temperature;BME280_humidity;BME280_pressure;Samples;Min_cycle;Max_cycle;Signal;HPM_P1;HPM_P2
2022/08/18 00:01:47;;;;;;;7.47;6.63;;;24.00;71.00;;;;;;5065114;28;20074;-69
2022/08/18 00:04:13;;;;;;;8.77;6.75;;;24.00;71.40;;;;;;5070327;28;20036;-69
2022/08/18 00:06:40;;;;;;;6.97;6.28;;;24.00;71.60;;;;;;5066070;28;20035;-69
2022/08/18 00:09:09;;;;;;;7.53;6.82;;;23.90;71.70;;;;;;5069648;28;20459;-69
2022/08/18 00:11:40;;;;;;;8.27;6.20;;;23.90;71.80;;;;;;5077522;28;20032;-69
2022/08/18 00:14:10;;;;;;;9.30;6.90;;;23.90;72.00;;;;;;5075835;28;20037;-69
2022/08/18 00:16:36;;;;;;;8.48;6.40;;;23.90;72.10;;;;;;5068199;28;20032;-69
2022/08/18 00:19:01;;;;;;;9.18;6.45;;;23.80;72.40;;;;;;5065149;28;20033;-69
2022/08/18 00:21:27;;;;;;;7.20;6.50;;;23.80;72.40;;;;;;5065359;28;20016;-69
2022/08/18 00:23:53;;;;;;;7.63;6.78;;;23.70;72.70;;;;;;5066488;28;20502;-68
2022/08/18 00:26:19;;;;;;;6.97;6.28;;;23.70;72.80;;;;;;5062184;28;20032;-68
2022/08/18 00:28:45;;;;;;;7.72;6.82;;;23.70;73.00;;;;;;5068711;28;20025;-69
2022/08/18 00:31:10;;;;;;;6.97;6.28;;;23.60;73.10;;;;;;5069158;28;20057;-68
2022/08/18 00:33:36;;;;;;;7.72;6.97;;;23.60;73.20;;;;;;5068766;28;20105;-68
2022/08/18 00:36:02;;;;;;;7.85;6.45;;;23.60;73.40;;;;;;5065618;28;20033;-68
2022/08/18 00:38:28;;;;;;;8.95;7.10;;;23.50;73.60;;;;;;5066833;28;20369;-68
2022/08/18 00:40:55;;;;;;;7.53;6.22;;;23.40;73.80;;;;;;5066862;28;20036;-69
2022/08/18 00:43:43;;;;;;;7.25;6.55;;;23.40;73.90;;;;;;5064393;28;20060;-69
2022/08/18 00:46:15;;;;;;;7.88;7.00;;;23.30;73.80;;;;;;5060957;28;20040;-69
2022/08/18 00:48:41;;;;;;;8.85;6.22;;;23.30;74.00;;;;;;5072430;28;20024;-68
2022/08/18 00:51:22;;;;;;;7.32;6.43;;;23.30;74.20;;;;;;5067292;28;20645;-69
2022/08/18 00:54:22;;;;;;;7.70;6.90;;;23.20;74.50;;;;;;5067705;28;20036;-69
2022/08/18 00:56:54;;;;;;;7.20;6.50;;;23.20;74.70;;;;;;5056173;28;20074;-69
2022/08/18 00:59:46;;;;;;;8.52;7.05;;;23.10;75.10;;;;;;5071328;28;20403;-68
2022/08/18 01:02:34;;;;;;;7.65;6.82;;;23.10;75.30;;;;;;5066126;28;20032;-68
2022/08/18 01:05:11;;;;;;;7.72;6.93;;;23.00;75.60;;;;;;5067635;28;20028;-68
2022/08/18 01:07:46;;;;;;;8.23;7.35;;;22.90;75.80;;;;;;5067451;28;20135;-68
2022/08/18 01:10:17;;;;;;;8.10;6.90;;;22.90;76.20;;;;;;5071076;28;20098;-69
2022/08/18 01:12:45;;;;;;;10.20;7.25;;;22.80;76.40;;;;;;5070355;28;20038;-68
2022/08/18 01:15:12;;;;;;;7.68;6.85;;;22.80;76.50;;;;;;5068309;28;20041;-69
2022/08/18 01:23:20;;;;;;;8.00;7.20;;;22.70;77.10;;;;;;5065724;28;20056;-68
2022/08/18 01:26:02;;;;;;;8.48;7.68;;;22.70;77.50;;;;;;5068531;28;20652;-68
2022/08/18 01:28:33;;;;;;;10.10;7.38;;;22.60;77.70;;;;;;5078016;28;20390;-68
2022/08/18 01:31:00;;;;;;;8.05;7.10;;;22.60;77.90;;;;;;5069241;28;20063;-69
2022/08/18 01:33:35;;;;;;;8.45;7.43;;;22.60;78.20;;;;;;5066668;28;20043;-68
2022/08/18 01:36:19;;;;;;;8.18;7.35;;;22.50;78.30;;;;;;5070180;28;20027;-69
2022/08/18 01:38:49;;;;;;;8.25;7.35;;;22.50;78.30;;;;;;5067582;28;20059;-68
2022/08/18 01:41:20;;;;;;;8.52;7.25;;;22.50;78.60;;;;;;5071282;28;20035;-69
2022/08/18 01:43:48;;;;;;;13.13;8.10;;;22.50;78.60;;;;;;5070372;28;20042;-68
2022/08/18 01:46:18;;;;;;;8.05;7.25;;;22.50;78.80;;;;;;5079112;28;20409;-68
2022/08/18 01:48:45;;;;;;;9.23;6.95;;;22.50;78.90;;;;;;5077806;28;20028;-68
2022/08/18 01:51:12;;;;;;;8.55;7.63;;;22.50;78.90;;;;;;5070606;28;20048;-69
2022/08/18 01:53:38;;;;;;;9.00;7.05;;;22.50;78.80;;;;;;5067780;28;20032;-68
2022/08/18 01:56:05;;;;;;;8.73;7.32;;;22.50;78.40;;;;;;5078472;28;20028;-68
2022/08/18 01:58:35;;;;;;;9.30;7.05;;;22.50;78.40;;;;;;5065494;28;20652;-68
2022/08/18 02:01:01;;;;;;;9.85;7.18;;;22.40;78.20;;;;;;5064813;28;20620;-68
2022/08/18 02:03:34;;;;;;;9.13;7.30;;;22.40;78.30;;;;;;5072974;28;20093;-68
2022/08/18 02:06:02;;;;;;;8.00;7.20;;;22.30;78.30;;;;;;5068840;28;20047;-68
2022/08/18 02:08:28;;;;;;;8.02;7.22;;;22.30;78.50;;;;;;5071203;28;20111;-69
2022/08/18 02:10:57;;;;;;;8.65;7.40;;;22.30;78.80;;;;;;5066595;28;20071;-68
2022/08/18 02:13:23;;;;;;;10.38;7.35;;;22.30;78.90;;;;;;5067076;28;20050;-68
2022/08/18 02:15:49;;;;;;;8.45;7.07;;;22.20;79.00;;;;;;5064314;28;20032;-68
2022/08/18 02:18:27;;;;;;;8.23;7.38;;;22.20;79.20;;;;;;5063857;28;20455;-68
2022/08/18 02:20:54;;;;;;;12.32;7.97;;;22.20;79.40;;;;;;5063171;28;20082;-69
2022/08/18 02:23:20;;;;;;;9.00;6.90;;;22.10;79.40;;;;;;5067375;28;20040;-68
2022/08/18 02:25:46;;;;;;;7.70;6.97;;;22.10;79.50;;;;;;5069451;28;20031;-68
2022/08/18 02:28:12;;;;;;;9.48;7.88;;;22.10;79.60;;;;;;5071879;28;20751;-68
2022/08/18 02:30:39;;;;;;;7.68;6.95;;;22.10;79.70;;;;;;5073028;28;20031;-69
2022/08/18 02:33:06;;;;;;;9.40;7.05;;;22.00;79.80;;;;;;5069155;28;20404;-69
2022/08/18 02:35:33;;;;;;;9.98;7.35;;;22.00;79.90;;;;;;5063165;28;20130;-69
2022/08/18 02:38:01;;;;;;;8.77;6.97;;;22.00;80.20;;;;;;5062432;28;20028;-68
2022/08/18 02:40:28;;;;;;;8.73;7.22;;;22.00;80.30;;;;;;5061790;28;20032;-69
2022/08/18 02:42:54;;;;;;;7.95;7.13;;;21.90;80.20;;;;;;5068014;28;20038;-68
2022/08/18 02:45:22;;;;;;;8.95;8.05;;;21.90;80.30;;;;;;5069086;28;20122;-69
2022/08/18 02:47:53;;;;;;;8.30;7.43;;;21.90;80.40;;;;;;5066997;28;20090;-69
2022/08/18 02:50:19;;;;;;;9.68;7.53;;;21.90;80.60;;;;;;5066453;28;20147;-69
2022/08/18 02:52:45;;;;;;;8.30;7.50;;;21.80;80.60;;;;;;5071144;28;20025;-68
2022/08/18 02:55:11;;;;;;;8.07;7.15;;;21.80;80.60;;;;;;5062770;28;20035;-68
2022/08/18 02:57:47;;;;;;;9.85;7.90;;;21.80;80.70;;;;;;5061270;28;20082;-69
2022/08/18 03:00:15;;;;;;;8.02;7.13;;;21.80;80.90;;;;;;5069387;28;20064;-69
2022/08/18 03:02:50;;;;;;;9.80;7.97;;;21.80;80.90;;;;;;5070978;28;20070;-69
2022/08/18 03:05:17;;;;;;;10.05;7.70;;;21.80;80.90;;;;;;5069652;28;20037;-69
2022/08/18 03:07:44;;;;;;;9.15;7.78;;;21.80;80.90;;;;;;5065566;28;20044;-69
2022/08/18 03:10:11;;;;;;;8.30;7.30;;;21.70;80.90;;;;;;5070770;28;20060;-69
2022/08/18 03:12:36;;;;;;;8.88;7.88;;;21.80;81.00;;;;;;5075055;28;20481;-68
2022/08/18 03:15:03;;;;;;;10.35;8.02;;;21.70;81.20;;;;;;5074870;28;20035;-69
2022/08/18 03:17:30;;;;;;;9.02;8.02;;;21.70;81.20;;;;;;5064659;28;20025;-69
2022/08/18 03:19:56;;;;;;;8.75;7.70;;;21.70;81.20;;;;;;5063602;28;20041;-68
2022/08/18 03:22:22;;;;;;;8.82;7.93;;;21.70;81.20;;;;;;5068178;28;20106;-68
2022/08/18 03:24:48;;;;;;;9.00;7.82;;;21.70;81.00;;;;;;5065729;28;20115;-68
2022/08/18 03:27:14;;;;;;;9.80;7.90;;;21.70;81.20;;;;;;5065487;28;20116;-68
2022/08/18 03:29:40;;;;;;;10.02;7.95;;;21.70;81.30;;;;;;5063935;28;20032;-68
2022/08/18 03:32:07;;;;;;;8.90;7.95;;;21.70;81.40;;;;;;5068572;28;20214;-69
2022/08/18 03:34:34;;;;;;;8.65;7.47;;;21.70;81.50;;;;;;5061651;28;20214;-69
2022/08/18 03:37:00;;;;;;;8.38;7.53;;;21.70;81.40;;;;;;5059392;28;20728;-68
2022/08/18 03:39:26;;;;;;;8.68;7.45;;;21.70;81.50;;;;;;5073764;28;20024;-69
2022/08/18 03:41:53;;;;;;;9.15;7.68;;;21.70;81.10;;;;;;5070858;28;20024;-69
2022/08/18 03:44:20;;;;;;;8.35;7.53;;;21.70;81.10;;;;;;5071902;28;20036;-68
2022/08/18 03:46:46;;;;;;;7.85;7.05;;;21.60;80.90;;;;;;5074774;28;20031;-68
2022/08/18 03:49:12;;;;;;;10.65;7.90;;;21.70;81.20;;;;;;5067300;28;20036;-69
2022/08/18 03:51:47;;;;;;;8.80;7.90;;;21.70;81.40;;;;;;5069255;28;20552;-68
2022/08/18 03:54:15;;;;;;;11.27;7.40;;;21.60;81.30;;;;;;5068148;28;20058;-68
2022/08/18 03:56:42;;;;;;;9.00;7.82;;;21.60;81.40;;;;;;5074126;28;20143;-68
2022/08/18 03:59:22;;;;;;;8.00;7.25;;;21.60;81.20;;;;;;5081962;28;20020;-69
2022/08/18 04:01:50;;;;;;;8.48;7.22;;;21.50;81.10;;;;;;5075415;28;20516;-69
2022/08/18 04:04:21;;;;;;;8.38;7.35;;;21.60;81.40;;;;;;5078922;28;20036;-68
2022/08/18 04:06:52;;;;;;;10.30;8.45;;;21.50;81.50;;;;;;5081832;28;20142;-69
2022/08/18 04:09:19;;;;;;;11.25;7.82;;;21.50;81.80;;;;;;5068458;28;20043;-69
2022/08/18 04:11:46;;;;;;;8.50;7.35;;;21.50;82.00;;;;;;5060654;28;20036;-69
2022/08/18 04:14:14;;;;;;;8.10;7.25;;;21.50;82.30;;;;;;5071541;28;20040;-68
2022/08/18 04:16:40;;;;;;;9.18;8.13;;;21.40;82.70;;;;;;5066302;28;20032;-69
2022/08/18 04:19:07;;;;;;;9.80;8.45;;;21.40;82.80;;;;;;5070460;28;20597;-69
2022/08/18 04:21:36;;;;;;;8.80;7.97;;;21.40;83.00;;;;;;5076924;28;20035;-69
2022/08/18 04:24:04;;;;;;;8.77;7.63;;;21.40;82.90;;;;;;5067204;28;20029;-68
2022/08/18 04:26:36;;;;;;;12.68;9.55;;;21.50;82.90;;;;;;5063458;28;20487;-69
2022/08/18 04:29:03;;;;;;;9.88;8.75;;;21.50;82.90;;;;;;5063796;28;20035;-69
2022/08/18 04:31:29;;;;;;;10.05;7.97;;;21.50;83.10;;;;;;5067302;28;20020;-69
2022/08/18 04:33:59;;;;;;;8.68;7.78;;;21.50;83.00;;;;;;5062553;28;20041;-69
2022/08/18 04:36:27;;;;;;;9.02;8.13;;;21.50;83.20;;;;;;5079025;28;20043;-69
2022/08/18 04:38:53;;;;;;;10.25;8.02;;;21.50;83.40;;;;;;5076035;28;20040;-69
2022/08/18 04:41:19;;;;;;;9.00;7.78;;;21.60;83.00;;;;;;5073905;28;20066;-69
2022/08/18 04:43:46;;;;;;;10.13;8.05;;;21.60;82.70;;;;;;5072724;28;20028;-69
2022/08/18 04:46:13;;;;;;;10.18;8.25;;;21.60;82.60;;;;;;5074316;28;20063;-69
2022/08/18 04:48:40;;;;;;;10.60;8.18;;;21.70;82.20;;;;;;5066975;28;20536;-69
2022/08/18 04:51:18;;;;;;;8.35;7.53;;;21.70;82.00;;;;;;5065846;28;20110;-69
2022/08/18 04:53:45;;;;;;;9.73;7.93;;;21.70;82.00;;;;;;5067913;28;20487;-69
2022/08/18 04:56:25;;;;;;;9.07;8.18;;;21.70;82.50;;;;;;5076812;28;20111;-70
2022/08/18 04:59:00;;;;;;;9.38;7.85;;;21.70;83.00;;;;;;5070216;28;20431;-70
2022/08/18 05:01:29;;;;;;;9.63;8.60;;;21.70;83.40;;;;;;5075087;28;20898;-69
2022/08/18 05:03:57;;;;;;;9.38;8.30;;;21.80;83.30;;;;;;5067282;28;20046;-69
2022/08/18 05:06:25;;;;;;;9.95;8.30;;;21.80;83.90;;;;;;5067519;28;20074;-69
2022/08/18 05:08:53;;;;;;;9.40;8.35;;;21.80;83.30;;;;;;5064714;28;20028;-69
2022/08/18 05:11:20;;;;;;;13.30;8.43;;;21.90;83.60;;;;;;5064526;28;20461;-69
2022/08/18 05:13:47;;;;;;;10.77;8.15;;;21.90;83.70;;;;;;5074920;28;20754;-69
2022/08/18 05:16:13;;;;;;;11.15;8.48;;;22.00;83.70;;;;;;5071699;28;20032;-69
2022/08/18 05:18:39;;;;;;;8.80;7.93;;;22.10;83.80;;;;;;5075798;28;20506;-69
2022/08/18 05:21:13;;;;;;;10.48;8.70;;;22.20;83.70;;;;;;5074207;28;20039;-69
2022/08/18 05:23:44;;;;;;;15.32;8.77;;;22.20;83.20;;;;;;5078570;28;20105;-68
2022/08/18 05:26:13;;;;;;;10.40;8.50;;;22.30;83.00;;;;;;5069021;28;20141;-68
2022/08/18 05:28:40;;;;;;;9.10;7.97;;;22.40;82.20;;;;;;5064190;28;20627;-68
2022/08/18 05:31:21;;;;;;;9.38;8.35;;;22.50;82.50;;;;;;5063535;28;20036;-69
2022/08/18 05:33:49;;;;;;;10.98;8.13;;;22.50;82.50;;;;;;5071566;28;20032;-69
2022/08/18 05:36:42;;;;;;;11.63;7.68;;;22.60;82.40;;;;;;5071819;28;20112;-69
2022/08/18 05:39:17;;;;;;;11.38;8.98;;;22.70;82.50;;;;;;5067915;28;20048;-69
2022/08/18 05:42:02;;;;;;;10.23;8.45;;;22.80;82.90;;;;;;5066434;28;20033;-69
2022/08/18 05:44:31;;;;;;;10.35;9.13;;;22.80;83.00;;;;;;5072083;28;20036;-69
2022/08/18 05:47:28;;;;;;;9.70;8.80;;;22.90;83.50;;;;;;5064478;28;20378;-69
2022/08/18 05:49:57;;;;;;;11.43;8.93;;;23.00;83.50;;;;;;5070848;28;20124;-69
2022/08/18 05:52:41;;;;;;;11.60;9.48;;;23.10;83.70;;;;;;5073036;28;20652;-69
2022/08/18 05:58:05;;;;;;;10.90;9.80;;;23.30;82.90;;;;;;5067206;28;20029;-69
2022/08/18 06:00:32;;;;;;;16.17;10.02;;;23.40;82.50;;;;;;5067903;28;20055;-70
2022/08/18 06:03:04;;;;;;;11.65;9.43;;;23.50;82.00;;;;;;5064245;28;20029;-69
2022/08/18 06:05:53;;;;;;;11.52;9.55;;;23.50;81.90;;;;;;5066866;28;20068;-70
2022/08/18 06:08:23;;;;;;;15.60;10.10;;;23.60;81.80;;;;;;5064581;28;20048;-69
2022/08/18 06:10:50;;;;;;;13.82;9.75;;;23.70;81.60;;;;;;5070675;28;20050;-69
2022/08/18 06:13:18;;;;;;;11.23;10.00;;;23.70;81.30;;;;;;5069403;28;20166;-69
2022/08/18 06:15:50;;;;;;;9.63;8.52;;;23.80;80.80;;;;;;5067719;28;20123;-69
2022/08/18 06:18:28;;;;;;;10.50;9.07;;;23.80;80.80;;;;;;5069907;28;20025;-70
2022/08/18 06:21:09;;;;;;;10.88;9.65;;;23.90;80.50;;;;;;5076438;28;20056;-70
2022/08/18 06:23:51;;;;;;;13.65;9.45;;;23.90;80.00;;;;;;5074250;28;20392;-69
2022/08/18 06:26:25;;;;;;;10.70;9.57;;;24.00;80.10;;;;;;5079146;28;20046;-69
2022/08/18 06:29:23;;;;;;;11.98;9.90;;;24.00;79.90;;;;;;5075091;28;20039;-70
2022/08/18 06:31:52;;;;;;;12.60;9.32;;;24.00;79.60;;;;;;5068454;28;20166;-69
2022/08/18 06:34:33;;;;;;;11.05;9.55;;;24.10;79.50;;;;;;5074395;28;20032;-69
2022/08/18 06:37:19;;;;;;;10.38;9.05;;;24.20;79.60;;;;;;5065211;28;20102;-69
2022/08/18 06:39:47;;;;;;;10.85;9.50;;;24.20;79.30;;;;;;5065547;28;20039;-69
2022/08/18 06:42:25;;;;;;;10.43;9.15;;;24.20;79.00;;;;;;5063169;28;20054;-69
2022/08/18 06:45:07;;;;;;;10.25;9.25;;;24.30;78.70;;;;;;5061567;28;20107;-69
2022/08/18 06:47:46;;;;;;;11.30;9.40;;;24.40;77.80;;;;;;5068785;28;20039;-69
2022/08/18 06:50:24;;;;;;;9.73;8.73;;;24.40;77.20;;;;;;5068364;28;20782;-69
2022/08/18 06:53:10;;;;;;;10.43;9.38;;;24.40;77.50;;;;;;5070616;28;20036;-69
2022/08/18 06:55:38;;;;;;;10.70;9.60;;;24.50;78.20;;;;;;5066381;28;20044;-69
2022/08/18 06:58:12;;;;;;;10.95;9.32;;;24.50;78.10;;;;;;5073680;28;20036;-69
2022/08/18 07:00:45;;;;;;;11.25;9.70;;;24.60;78.10;;;;;;5062018;28;20078;-69
2022/08/18 07:03:13;;;;;;;10.40;9.20;;;24.60;78.30;;;;;;5064186;28;20819;-69
2022/08/18 07:06:02;;;;;;;11.27;9.63;;;24.70;77.90;;;;;;5068110;28;20031;-69
2022/08/18 07:08:40;;;;;;;11.52;9.82;;;24.80;77.70;;;;;;5071696;28;20055;-69
2022/08/18 07:11:28;;;;;;;17.30;9.18;;;24.80;77.50;;;;;;5073320;28;20040;-69
2022/08/18 07:14:11;;;;;;;11.35;9.45;;;24.90;77.80;;;;;;5064708;28;20561;-70
2022/08/18 07:16:37;;;;;;;17.27;9.50;;;25.00;77.80;;;;;;5070245;28;20119;-70
2022/08/18 07:19:07;;;;;;;11.57;10.07;;;25.00;77.60;;;;;;5066452;28;20546;-68
2022/08/18 07:21:36;;;;;;;12.50;9.88;;;25.10;76.80;;;;;;5068301;28;20037;-70
2022/08/18 07:24:20;;;;;;;10.60;9.55;;;25.10;76.10;;;;;;5064017;28;20114;-69
2022/08/18 07:27:16;;;;;;;12.55;9.07;;;25.20;75.60;;;;;;5071529;28;20058;-69
2022/08/18 07:30:13;;;;;;;15.30;9.80;;;25.20;75.50;;;;;;5077369;28;20109;-70
2022/08/18 07:32:46;;;;;;;11.55;10.13;;;25.30;74.90;;;;;;5062476;28;20046;-69
2022/08/18 07:35:23;;;;;;;12.65;11.25;;;25.40;75.50;;;;;;5066028;28;20036;-69
2022/08/18 07:38:27;;;;;;;13.32;10.82;;;25.40;76.00;;;;;;5066848;28;20043;-70
2022/08/18 07:41:12;;;;;;;11.05;9.85;;;25.40;76.50;;;;;;5054685;28;20059;-69
2022/08/18 07:43:40;;;;;;;13.20;11.00;;;25.40;77.20;;;;;;5064374;28;20063;-70
2022/08/18 07:46:15;;;;;;;14.15;11.18;;;25.50;77.40;;;;;;5067963;28;20024;-70
2022/08/18 07:48:41;;;;;;;12.05;10.55;;;25.50;77.60;;;;;;5077475;28;20119;-69
2022/08/18 07:51:28;;;;;;;12.20;10.40;;;25.50;77.90;;;;;;5065128;28;20035;-70
2022/08/18 07:54:09;;;;;;;14.52;9.95;;;25.60;77.50;;;;;;5072732;28;20029;-70
2022/08/18 07:56:56;;;;;;;12.73;11.25;;;25.60;77.40;;;;;;5069120;28;20036;-69
2022/08/18 07:59:47;;;;;;;11.75;10.50;;;25.70;76.80;;;;;;5063885;28;20032;-69
2022/08/18 08:02:27;;;;;;;11.63;10.27;;;25.80;76.50;;;;;;5063436;28;20044;-70
2022/08/18 08:05:19;;;;;;;16.67;11.05;;;25.80;75.80;;;;;;5068602;28;20036;-69
2022/08/18 08:07:54;;;;;;;11.00;9.90;;;25.80;75.50;;;;;;5075451;28;20138;-69
2022/08/18 08:10:25;;;;;;;16.13;9.77;;;25.90;75.60;;;;;;5070712;28;20033;-70
2022/08/18 08:13:20;;;;;;;13.15;10.60;;;26.00;75.40;;;;;;5067291;28;20516;-69
2022/08/18 08:16:06;;;;;;;11.90;10.63;;;26.00;75.20;;;;;;5073014;28;20086;-70
2022/08/18 08:19:07;;;;;;;11.60;10.40;;;26.10;75.00;;;;;;5064686;28;20025;-70
2022/08/18 08:21:43;;;;;;;11.05;9.85;;;26.10;75.00;;;;;;5060649;28;20028;-70
2022/08/18 08:24:17;;;;;;;;;;;26.20;75.00;;;;;;5072140;28;20063;-70
2022/08/18 08:27:18;;;;;;;11.30;9.80;;;26.40;74.60;;;;;;5072015;28;19929;-70
2022/08/18 08:30:07;;;;;;;12.43;10.32;;;26.40;74.40;;;;;;5078707;28;20059;-70
2022/08/18 08:32:42;;;;;;;11.10;10.02;;;26.50;74.80;;;;;;5078441;28;20482;-70
2022/08/18 08:35:12;;;;;;;13.13;10.40;;;26.60;74.80;;;;;;5070782;28;20123;-70
2022/08/18 08:37:47;;;;;;;11.63;9.35;;;26.70;74.00;;;;;;5079527;28;20025;-69
2022/08/18 08:40:30;;;;;;;11.93;9.60;;;26.90;73.50;;;;;;5082484;28;20028;-70
2022/08/18 08:43:10;;;;;;;11.88;9.55;;;26.90;73.00;;;;;;5086336;28;20039;-70
2022/08/18 08:45:43;;;;;;;14.40;10.00;;;27.00;72.20;;;;;;5075305;28;20122;-68
2022/08/18 08:48:16;;;;;;;11.80;9.73;;;27.20;71.20;;;;;;5069774;28;20040;-69
2022/08/18 08:50:54;;;;;;;10.00;9.00;;;27.20;71.00;;;;;;5067977;28;20032;-69
2022/08/18 08:53:39;;;;;;;13.30;10.05;;;27.20;70.70;;;;;;5066800;28;20066;-70
2022/08/18 08:56:13;;;;;;;12.25;9.25;;;27.40;70.00;;;;;;5064727;28;20040;-69
2022/08/18 08:58:49;;;;;;;10.43;9.27;;;27.60;68.50;;;;;;5074828;28;20016;-70
2022/08/18 09:01:33;;;;;;;11.65;8.88;;;27.80;68.30;;;;;;5072328;28;20511;-70
2022/08/18 09:04:20;;;;;;;13.23;8.93;;;28.00;67.40;;;;;;5075097;28;20789;-69
2022/08/18 09:07:04;;;;;;;13.05;9.23;;;28.20;65.00;;;;;;5067404;28;20119;-70
2022/08/18 09:10:00;;;;;;;12.02;8.40;;;28.30;64.20;;;;;;5073115;28;20140;-70
2022/08/18 09:12:44;;;;;;;;;;;28.50;63.40;;;;;;5066619;28;20483;-70
2022/08/18 09:15:43;;;;;;;9.20;8.07;;;28.70;63.10;;;;;;5068117;28;19916;-70
2022/08/18 09:18:20;;;;;;;11.05;8.23;;;28.90;61.50;;;;;;5068542;28;20067;-70
2022/08/18 09:21:06;;;;;;;12.60;8.27;;;29.10;61.40;;;;;;5079023;28;20024;-70
2022/08/18 09:23:43;;;;;;;10.50;8.05;;;29.20;60.00;;;;;;5068514;28;20028;-70
2022/08/18 09:26:39;;;;;;;10.18;7.93;;;29.50;59.90;;;;;;5075995;28;20565;-70
2022/08/18 09:29:26;;;;;;;10.52;8.15;;;29.60;59.10;;;;;;5066667;28;20036;-70
2022/08/18 09:32:19;;;;;;;11.40;8.20;;;29.60;59.40;;;;;;5067968;28;20029;-70
2022/08/18 09:35:19;;;;;;;11.98;8.40;;;29.60;59.20;;;;;;5065127;28;20033;-70
2022/08/18 09:44:08;;;;;;;10.68;8.40;;;29.90;58.60;;;;;;5073868;28;20159;-69
2022/08/18 09:46:54;;;;;;;11.00;9.18;;;30.00;58.00;;;;;;5067183;28;20054;-70
2022/08/18 09:49:26;;;;;;;12.38;8.02;;;30.10;57.80;;;;;;5066934;28;20527;-70
2022/08/18 09:52:12;;;;;;;11.27;8.35;;;30.10;58.10;;;;;;5064178;28;20032;-70
2022/08/18 09:54:50;;;;;;;;;;;30.10;58.10;;;;;;5064601;28;20028;-70
2022/08/18 09:57:23;;;;;;;10.38;8.77;;;30.10;57.80;;;;;;5072874;28;20010;-70
2022/08/18 09:59:49;;;;;;;9.15;8.10;;;30.20;56.60;;;;;;5070464;28;20020;-70
2022/08/18 10:02:36;;;;;;;11.95;8.05;;;30.20;56.00;;;;;;5069064;28;20028;-70
2022/08/18 10:05:14;;;;;;;13.25;8.65;;;30.30;56.80;;;;;;5066769;28;20531;-70
2022/08/18 10:07:43;;;;;;;13.45;7.90;;;30.40;55.30;;;;;;5078587;28;20034;-70
2022/08/18 10:10:18;;;;;;;9.13;7.30;;;30.50;55.20;;;;;;5063106;28;20209;-70
2022/08/18 10:12:49;;;;;;;13.07;8.07;;;30.60;54.80;;;;;;5069551;28;20036;-70
2022/08/18 10:15:28;;;;;;;16.35;8.93;;;30.80;54.00;;;;;;5065458;28;20040;-70
2022/08/18 10:17:59;;;;;;;12.15;8.30;;;30.90;53.50;;;;;;5067841;28;20094;-70
2022/08/18 10:20:25;;;;;;;8.60;7.30;;;31.10;53.80;;;;;;5070521;28;20036;-70
2022/08/18 10:22:51;;;;;;;7.90;7.10;;;31.10;53.30;;;;;;5067672;28;20032;-70
2022/08/18 10:25:31;;;;;;;9.88;7.35;;;31.20;51.90;;;;;;5066969;28;20036;-72
2022/08/18 10:27:57;;;;;;;8.73;7.07;;;31.30;51.00;;;;;;5062242;28;20141;-70
2022/08/18 10:30:35;;;;;;;9.15;7.00;;;31.30;51.20;;;;;;5063788;28;20493;-70
2022/08/18 10:33:03;;;;;;;7.50;6.70;;;31.30;52.10;;;;;;5067793;28;20036;-70
2022/08/18 10:35:35;;;;;;;8.00;7.20;;;31.40;51.70;;;;;;5072656;28;20032;-70
2022/08/18 10:38:26;;;;;;;17.27;7.50;;;31.50;51.40;;;;;;5073870;28;20067;-71
2022/08/18 10:41:07;;;;;;;10.65;7.20;;;31.70;51.50;;;;;;5061797;28;20048;-70
2022/08/18 10:43:45;;;;;;;7.90;7.10;;;31.70;50.50;;;;;;5064243;28;20024;-70
2022/08/18 10:46:22;;;;;;;7.95;7.15;;;31.80;51.30;;;;;;5067562;28;20043;-70
2022/08/18 10:49:24;;;;;;;10.10;7.30;;;31.80;51.10;;;;;;5063482;28;20039;-70
2022/08/18 10:52:14;;;;;;;9.98;7.78;;;31.80;51.40;;;;;;5077634;28;20084;-70
2022/08/18 10:54:46;;;;;;;8.27;7.47;;;31.80;51.40;;;;;;5075604;28;20028;-70
2022/08/18 10:57:38;;;;;;;11.95;7.22;;;31.70;51.80;;;;;;5076558;28;20020;-70
2022/08/18 11:00:12;;;;;;;12.00;6.97;;;31.70;50.80;;;;;;5075085;28;20040;-70
2022/08/18 11:02:44;;;;;;;7.75;6.70;;;31.70;50.90;;;;;;5064185;28;20024;-70
2022/08/18 11:05:13;;;;;;;11.32;7.03;;;31.70;50.10;;;;;;5063622;28;20044;-70
2022/08/18 11:07:42;;;;;;;11.50;7.40;;;31.70;51.00;;;;;;5069246;28;20602;-71
2022/08/18 11:10:18;;;;;;;15.20;7.15;;;31.80;50.60;;;;;;5065696;28;20063;-70
2022/08/18 11:13:08;;;;;;;11.75;6.80;;;31.90;50.20;;;;;;5070045;28;20055;-70
2022/08/18 11:15:51;;;;;;;11.82;6.95;;;32.00;50.80;;;;;;5076157;28;20059;-70
2022/08/18 11:18:31;;;;;;;12.43;6.45;;;32.10;49.10;;;;;;5067065;28;20058;-70
2022/08/18 11:21:34;;;;;;;13.68;6.57;;;32.20;48.60;;;;;;5065623;28;20820;-70
2022/08/18 11:24:14;;;;;;;8.70;7.15;;;32.20;48.40;;;;;;5063709;28;20029;-70
2022/08/18 11:26:48;;;;;;;11.55;6.80;;;32.20;48.50;;;;;;5063052;28;20025;-70
2022/08/18 11:29:28;;;;;;;11.00;6.20;;;32.30;49.30;;;;;;5061796;28;20036;-70
2022/08/18 11:32:02;;;;;;;9.68;6.10;;;32.30;48.70;;;;;;5068750;28;20132;-70
2022/08/18 11:34:39;;;;;;;8.07;6.10;;;32.30;48.50;;;;;;5067938;28;20062;-70
2022/08/18 11:37:27;;;;;;;7.43;6.03;;;32.20;48.00;;;;;;5076232;28;20482;-71
2022/08/18 11:39:56;;;;;;;12.50;7.30;;;32.20;48.30;;;;;;5064943;28;20051;-70
2022/08/18 11:42:40;;;;;;;15.65;6.95;;;32.10;50.50;;;;;;5063553;28;20028;-70
2022/08/18 11:45:12;;;;;;;12.85;8.05;;;32.20;51.40;;;;;;5069493;28;20028;-70
2022/08/18 11:47:37;;;;;;;13.88;7.70;;;32.30;51.40;;;;;;5064602;28;20031;-70
2022/08/18 11:50:11;;;;;;;8.13;6.78;;;32.30;50.90;;;;;;5071770;28;20036;-71
2022/08/18 11:52:51;;;;;;;12.40;7.47;;;32.30;50.40;;;;;;5066463;28;20020;-71
2022/08/18 11:55:30;;;;;;;8.25;7.28;;;32.30;50.70;;;;;;5068481;28;20518;-70
2022/08/18 11:57:57;;;;;;;10.45;7.55;;;32.30;50.60;;;;;;5065386;28;20034;-71
2022/08/18 12:00:40;;;;;;;9.48;6.55;;;32.30;50.90;;;;;;5065891;28;20083;-70
2022/08/18 12:03:09;;;;;;;7.93;7.07;;;32.30;51.30;;;;;;5065771;28;20027;-70
2022/08/18 12:05:59;;;;;;;9.90;7.32;;;32.30;50.50;;;;;;5061241;28;20035;-70
2022/08/18 12:08:48;;;;;;;10.13;6.72;;;32.40;50.40;;;;;;5066538;28;20132;-70
2022/08/18 12:11:20;;;;;;;7.22;6.20;;;32.40;50.10;;;;;;5077839;28;20040;-70
2022/08/18 12:13:56;;;;;;;8.65;7.05;;;32.50;49.90;;;;;;5065614;28;20033;-70
2022/08/18 12:16:36;;;;;;;7.00;6.30;;;32.50;49.60;;;;;;5065514;28;20033;-70
2022/08/18 12:19:04;;;;;;;13.50;6.32;;;32.60;49.40;;;;;;5063859;28;20055;-70
2022/08/18 12:21:31;;;;;;;16.13;7.47;;;32.60;49.40;;;;;;5061413;28;20024;-70
2022/08/18 12:23:57;;;;;;;10.88;6.63;;;32.60;48.90;;;;;;5063440;28;20432;-70
2022/08/18 12:26:22;;;;;;;7.20;6.38;;;32.70;48.40;;;;;;5061055;28;20115;-71
2022/08/18 12:28:48;;;;;;;13.30;6.80;;;32.70;48.40;;;;;;5067520;28;20028;-70
2022/08/18 12:31:14;;;;;;;9.18;6.57;;;32.60;48.70;;;;;;5066989;28;20119;-70
2022/08/18 12:33:40;;;;;;;11.52;6.80;;;32.70;49.20;;;;;;5071453;28;20051;-70
2022/08/18 12:36:06;;;;;;;8.07;6.57;;;32.70;49.00;;;;;;5069834;28;20039;-71
2022/08/18 12:38:32;;;;;;;8.85;6.78;;;32.80;48.60;;;;;;5065055;28;20037;-70
2022/08/18 12:40:58;;;;;;;11.60;6.53;;;32.90;48.60;;;;;;5060969;28;20555;-70
2022/08/18 12:43:24;;;;;;;12.40;6.63;;;32.90;47.50;;;;;;5058835;28;20046;-70
2022/08/18 12:45:51;;;;;;;9.50;6.90;;;32.80;47.40;;;;;;5071062;28;20034;-70
2022/08/18 12:48:17;;;;;;;8.85;6.68;;;32.70;47.50;;;;;;5068297;28;20038;-71
2022/08/18 12:50:43;;;;;;;9.75;5.78;;;32.70;47.60;;;;;;5066644;28;20111;-71
2022/08/18 12:53:10;;;;;;;13.60;6.72;;;32.70;47.70;;;;;;5070282;28;20042;-70
2022/08/18 12:55:42;;;;;;;6.45;5.85;;;32.70;47.60;;;;;;5084268;28;20059;-70
2022/08/18 12:58:08;;;;;;;8.25;6.22;;;32.70;47.30;;;;;;5079797;28;20043;-70
2022/08/18 13:00:34;;;;;;;6.50;5.90;;;32.60;47.00;;;;;;5067029;28;20033;-70
2022/08/18 13:03:01;;;;;;;10.40;5.90;;;32.50;47.60;;;;;;5076460;28;20036;-70
2022/08/18 13:05:27;;;;;;;6.93;6.20;;;32.40;47.50;;;;;;5076285;28;20031;-70
2022/08/18 13:07:56;;;;;;;6.65;6.03;;;32.40;47.70;;;;;;5081572;28;20036;-70
2022/08/18 13:10:22;;;;;;;12.70;6.18;;;32.40;47.90;;;;;;5081253;28;20039;-70
2022/08/18 13:12:48;;;;;;;10.90;5.97;;;32.40;48.00;;;;;;5076350;28;20048;-70
2022/08/18 13:15:14;;;;;;;9.50;5.60;;;32.50;47.60;;;;;;5081421;28;20571;-70
2022/08/18 13:17:40;;;;;;;6.70;5.22;;;32.50;47.70;;;;;;5071372;28;20040;-70
2022/08/18 13:20:12;;;;;;;13.35;5.80;;;32.60;47.10;;;;;;5066226;28;20040;-70
2022/08/18 13:22:41;;;;;;;8.70;5.75;;;32.60;47.00;;;;;;5065592;28;20031;-70
2022/08/18 13:25:12;;;;;;;9.60;5.95;;;32.70;47.10;;;;;;5072483;28;20041;-70
2022/08/18 13:27:38;;;;;;;7.50;5.40;;;32.70;46.90;;;;;;5078663;28;20027;-70
2022/08/18 13:30:08;;;;;;;7.85;5.70;;;32.80;47.20;;;;;;5066800;28;20071;-70
2022/08/18 13:32:34;;;;;;;11.00;5.85;;;33.00;46.50;;;;;;5068546;28;20866;-69